Melody — V7OM3 — position and weather

sailwx.info

Track history (hours):
 
Tides and Currents Weather Stations Pressure Air Temp Water Temp Dewpoint Dewpoint Depression Visibility Wind Speed Wind Dir Waves Ship Positions

Melody

Last reported at 2017-Oct-20 01:31 UTC. Time now 2017-Oct-20 14:05 UTC.
Position N 36°52' E 024°02'.

Length 183 m; draft 11.4 m.

Type: Tanker. MMSI: 538003113.

Date/timePositionNaut miles runAvg speedWind from/ knotsBaromVisibWave heightAir tempDewpointWater temp
2017-Oct-20 01:31N 36°52' E 024°02'012.2
2017-Oct-20 01:30N 36°52' E 024°02'45011.4
2017-Oct-18 09:55N 36°15' E 014°44'513.2
2017-Oct-18 09:30N 36°17' E 014°37'713.0
2017-Oct-18 09:00N 36°19' E 014°30'713.2
2017-Oct-18 08:30N 36°21' E 014°22'613.1
2017-Oct-18 08:00N 36°24' E 014°15'713.1
2017-Oct-18 07:30N 36°26' E 014°07'713.0
2017-Oct-18 06:57N 36°28' E 013°58'712.9
2017-Oct-18 06:26N 36°31' E 013°51'613.0
2017-Oct-18 06:00N 36°33' E 013°44'1712.7
2017-Oct-18 04:40N 36°39' E 013°24'2312.7
2017-Oct-18 02:50N 36°46' E 012°57'15712.5
2017-Oct-17 14:16N 37°35' E 009°49'51012.4
2017-Oct-15 21:06N 36°36' W 000°45'21312.4
2017-Oct-15 03:55N 35°60' W 005°06'513.1
2017-Oct-15 03:30N 35°59' W 005°13'612.7
2017-Oct-15 03:00N 35°58' W 005°20'612.0
2017-Oct-15 02:30N 35°57' W 005°28'1412.9
2017-Oct-15 01:23N 35°54' W 005°45'513.0
2017-Oct-15 01:00N 35°54' W 005°51'7212.0
2017-Oct-14 18:59N 36°06' W 007°20'1812.9
2017-Oct-14 17:35N 36°10' W 007°41'113.9
2017-Oct-14 17:29N 36°11' W 007°43'712.2
2017-Oct-14 16:53N 36°13' W 007°52'512.1
2017-Oct-14 16:30N 36°14' W 007°57'612.2
2017-Oct-14 16:00N 36°15' W 008°05'612.1
2017-Oct-14 15:30N 36°17' W 008°12'1912.2
2017-Oct-14 13:55N 36°21' W 008°35'1912.4
2017-Oct-14 12:23N 36°26' W 008°58'612.8
2017-Oct-14 11:54N 36°27' W 009°05'1012.8
2017-Oct-14 11:06N 36°30' W 009°18'111.4
2017-Oct-14 11:00N 36°30' W 009°19'612.2
2017-Oct-14 10:29N 36°34' W 009°25'612.4
2017-Oct-14 10:01N 36°39' W 009°30'612.3
2017-Oct-14 09:31N 36°43' W 009°35'611.7
2017-Oct-14 09:00N 36°48' W 009°39'612.1
2017-Oct-14 08:30N 36°54' W 009°40'612.4
2017-Oct-14 07:58N 37°00' W 009°42'13 9.5
2017-Oct-14 06:39N 37°13' W 009°46'1 9.3
2017-Oct-14 06:30N 37°14' W 009°46'611.9
2017-Oct-14 05:59N 37°20' W 009°48'612.5
2017-Oct-14 05:31N 37°26' W 009°49'612.4
2017-Oct-14 05:01N 37°32' W 009°51'612.4
2017-Oct-14 04:30N 37°38' W 009°53'612.3
2017-Oct-14 04:00N 37°44' W 009°55'612.7
2017-Oct-14 03:30N 37°50' W 009°56'713.0
2017-Oct-14 03:01N 37°57' W 009°58'612.9
2017-Oct-14 02:31N 38°03' W 010°00'713.1
2017-Oct-14 02:01N 38°09' W 010°02'612.9
2017-Oct-14 01:31N 38°16' W 010°04'613.0
2017-Oct-14 01:00N 38°22' W 010°06'612.9
2017-Oct-14 00:31N 38°28' W 010°07'712.9
2017-Oct-14 00:00N 38°35' W 010°09'612.7
2017-Oct-13 23:30N 38°41' W 010°11'611.9
2017-Oct-13 22:59N 38°47' W 010°12'612.1
2017-Oct-13 22:29N 38°53' W 010°12'612.4
2017-Oct-13 21:59N 38°59' W 010°11'612.5
2017-Oct-13 21:30N 39°05' W 010°11'612.7
2017-Oct-13 21:00N 39°11' W 010°11'712.9
2017-Oct-13 20:26N 39°19' W 010°11'612.9
2017-Oct-13 20:00N 39°24' W 010°11'1212.7
2017-Oct-13 19:05N 39°36' W 010°11'612.8
2017-Oct-13 18:37N 39°42' W 010°11'812.6
2017-Oct-13 17:58N 39°50' W 010°11'2712.6
2017-Oct-13 15:52N 40°17' W 010°12'1612.2
2017-Oct-13 14:36N 40°32' W 010°11'112.4
2017-Oct-13 14:30N 40°33' W 010°11'3212.6
2017-Oct-13 11:58N 41°05' W 010°12'612.7
2017-Oct-13 11:30N 41°11' W 010°12'612.5
2017-Oct-13 11:01N 41°17' W 010°12'  
2017-Oct-10 23:14N 50°22' W 000°52'2 8.5
2017-Oct-10 23:00N 50°22' W 000°49'15 9.6
2017-Oct-10 21:26N 50°26' W 000°26'511.1
2017-Oct-10 20:58N 50°28' W 000°18'612.0
2017-Oct-10 20:30N 50°29' W 000°10'612.5
2017-Oct-10 20:00N 50°31' W 000°00'612.8
2017-Oct-10 19:30N 50°33' E 000°09'612.9
2017-Oct-10 19:00N 50°35' E 000°19'612.9
2017-Oct-10 18:30N 50°36' E 000°29'612.6
2017-Oct-10 18:00N 50°39' E 000°38'612.4
2017-Oct-10 17:30N 50°42' E 000°46'612.0
2017-Oct-10 17:00N 50°45' E 000°55'611.4
2017-Oct-10 16:30N 50°49' E 001°02'610.8
2017-Oct-10 16:00N 50°52' E 001°09'510.0
2017-Oct-10 15:30N 50°54' E 001°16'5 9.4
2017-Oct-10 15:00N 50°57' E 001°22'9 9.2
2017-Oct-10 14:00N 51°04' E 001°32'5 9.9
2017-Oct-10 13:31N 51°07' E 001°37'510.8
2017-Oct-10 13:01N 51°11' E 001°43'612.0
2017-Oct-10 12:30N 51°16' E 001°49'713.2
2017-Oct-10 12:01N 51°22' E 001°54'714.0
2017-Oct-10 11:30N 51°27' E 002°01'714.2
2017-Oct-10 11:00N 51°33' E 002°08'714.0
2017-Oct-10 10:30N 51°38' E 002°15'  
Track history (hours):
 
Tides and Currents Weather Stations Pressure Air Temp Water Temp Dewpoint Dewpoint Depression Visibility Wind Speed Wind Dir Waves Ship Positions

Melody

Last reported at 2017-Oct-20 01:31 UTC. Time now 2017-Oct-20 14:05 UTC.
Position N 36°52' E 024°02'.

Length 183 m; draft 11.4 m.

Type: Tanker. MMSI: 538003113.

Date/timePositionNaut miles runAvg speedWind from/ knotsBaromVisibWave heightAir tempDewpointWater temp
2017-Oct-20 01:31N 36°52' E 024°02'012.2
2017-Oct-20 01:30N 36°52' E 024°02'45011.4
2017-Oct-18 09:55N 36°15' E 014°44'513.2
2017-Oct-18 09:30N 36°17' E 014°37'713.0
2017-Oct-18 09:00N 36°19' E 014°30'713.2
2017-Oct-18 08:30N 36°21' E 014°22'613.1
2017-Oct-18 08:00N 36°24' E 014°15'713.1
2017-Oct-18 07:30N 36°26' E 014°07'713.0
2017-Oct-18 06:57N 36°28' E 013°58'712.9
2017-Oct-18 06:26N 36°31' E 013°51'613.0
2017-Oct-18 06:00N 36°33' E 013°44'1712.7
2017-Oct-18 04:40N 36°39' E 013°24'2312.7
2017-Oct-18 02:50N 36°46' E 012°57'15712.5
2017-Oct-17 14:16N 37°35' E 009°49'51012.4
2017-Oct-15 21:06N 36°36' W 000°45'21312.4
2017-Oct-15 03:55N 35°60' W 005°06'513.1
2017-Oct-15 03:30N 35°59' W 005°13'612.7
2017-Oct-15 03:00N 35°58' W 005°20'612.0
2017-Oct-15 02:30N 35°57' W 005°28'1412.9
2017-Oct-15 01:23N 35°54' W 005°45'513.0
2017-Oct-15 01:00N 35°54' W 005°51'7212.0
2017-Oct-14 18:59N 36°06' W 007°20'1812.9
2017-Oct-14 17:35N 36°10' W 007°41'113.9
2017-Oct-14 17:29N 36°11' W 007°43'712.2
2017-Oct-14 16:53N 36°13' W 007°52'512.1
2017-Oct-14 16:30N 36°14' W 007°57'612.2
2017-Oct-14 16:00N 36°15' W 008°05'612.1
2017-Oct-14 15:30N 36°17' W 008°12'1912.2
2017-Oct-14 13:55N 36°21' W 008°35'1912.4
2017-Oct-14 12:23N 36°26' W 008°58'612.8
2017-Oct-14 11:54N 36°27' W 009°05'1012.8
2017-Oct-14 11:06N 36°30' W 009°18'111.4
2017-Oct-14 11:00N 36°30' W 009°19'612.2
2017-Oct-14 10:29N 36°34' W 009°25'612.4
2017-Oct-14 10:01N 36°39' W 009°30'612.3
2017-Oct-14 09:31N 36°43' W 009°35'611.7
2017-Oct-14 09:00N 36°48' W 009°39'612.1
2017-Oct-14 08:30N 36°54' W 009°40'612.4
2017-Oct-14 07:58N 37°00' W 009°42'13 9.5
2017-Oct-14 06:39N 37°13' W 009°46'1 9.3
2017-Oct-14 06:30N 37°14' W 009°46'611.9
2017-Oct-14 05:59N 37°20' W 009°48'612.5
2017-Oct-14 05:31N 37°26' W 009°49'612.4
2017-Oct-14 05:01N 37°32' W 009°51'612.4
2017-Oct-14 04:30N 37°38' W 009°53'612.3
2017-Oct-14 04:00N 37°44' W 009°55'612.7
2017-Oct-14 03:30N 37°50' W 009°56'713.0
2017-Oct-14 03:01N 37°57' W 009°58'612.9
2017-Oct-14 02:31N 38°03' W 010°00'713.1
2017-Oct-14 02:01N 38°09' W 010°02'612.9
2017-Oct-14 01:31N 38°16' W 010°04'613.0
2017-Oct-14 01:00N 38°22' W 010°06'612.9
2017-Oct-14 00:31N 38°28' W 010°07'712.9
2017-Oct-14 00:00N 38°35' W 010°09'612.7
2017-Oct-13 23:30N 38°41' W 010°11'611.9
2017-Oct-13 22:59N 38°47' W 010°12'612.1
2017-Oct-13 22:29N 38°53' W 010°12'612.4
2017-Oct-13 21:59N 38°59' W 010°11'612.5
2017-Oct-13 21:30N 39°05' W 010°11'612.7
2017-Oct-13 21:00N 39°11' W 010°11'712.9
2017-Oct-13 20:26N 39°19' W 010°11'612.9
2017-Oct-13 20:00N 39°24' W 010°11'1212.7
2017-Oct-13 19:05N 39°36' W 010°11'612.8
2017-Oct-13 18:37N 39°42' W 010°11'812.6
2017-Oct-13 17:58N 39°50' W 010°11'2712.6
2017-Oct-13 15:52N 40°17' W 010°12'1612.2
2017-Oct-13 14:36N 40°32' W 010°11'112.4
2017-Oct-13 14:30N 40°33' W 010°11'3212.6
2017-Oct-13 11:58N 41°05' W 010°12'612.7
2017-Oct-13 11:30N 41°11' W 010°12'612.5
2017-Oct-13 11:01N 41°17' W 010°12'  
2017-Oct-10 23:14N 50°22' W 000°52'2 8.5
2017-Oct-10 23:00N 50°22' W 000°49'15 9.6
2017-Oct-10 21:26N 50°26' W 000°26'511.1
2017-Oct-10 20:58N 50°28' W 000°18'612.0
2017-Oct-10 20:30N 50°29' W 000°10'612.5
2017-Oct-10 20:00N 50°31' W 000°00'612.8
2017-Oct-10 19:30N 50°33' E 000°09'612.9
2017-Oct-10 19:00N 50°35' E 000°19'612.9
2017-Oct-10 18:30N 50°36' E 000°29'612.6
2017-Oct-10 18:00N 50°39' E 000°38'612.4
2017-Oct-10 17:30N 50°42' E 000°46'612.0
2017-Oct-10 17:00N 50°45' E 000°55'611.4
2017-Oct-10 16:30N 50°49' E 001°02'610.8
2017-Oct-10 16:00N 50°52' E 001°09'510.0
2017-Oct-10 15:30N 50°54' E 001°16'5 9.4
2017-Oct-10 15:00N 50°57' E 001°22'9 9.2
2017-Oct-10 14:00N 51°04' E 001°32'5 9.9
2017-Oct-10 13:31N 51°07' E 001°37'510.8
2017-Oct-10 13:01N 51°11' E 001°43'612.0
2017-Oct-10 12:30N 51°16' E 001°49'713.2
2017-Oct-10 12:01N 51°22' E 001°54'714.0
2017-Oct-10 11:30N 51°27' E 002°01'714.2
2017-Oct-10 11:00N 51°33' E 002°08'714.0
2017-Oct-10 10:30N 51°38' E 002°15'  

Dump ship's entire track history